Hohe Bank — ZDJU8 — position and weather

sailwx.info

Track history (hours):
 
Tides and Currents Weather Stations Pressure Air Temp Water Temp Dewpoint Dewpoint Depression Visibility Wind Speed Wind Dir Waves Ship Positions

Hohe Bank

Last reported at 2018-Feb-19 13:19 UTC. Time now 2018-Feb-20 03:54 UTC.
Position N 37°46' E 016°04'.

Length 86 m; draft 4 m.

Type: Cargo ship. MMSI: 236568000.

Date/timePositionNaut miles runAvg speedWind from/ knotsBaromVisibWave heightAir tempDewpointWater temp
2018-Feb-19 13:19N 37°46' E 016°04'410.9
2018-Feb-19 12:58N 37°46' E 015°59'5 9.2
2018-Feb-19 12:24N 37°48' E 015°53'410.4
2018-Feb-19 12:00N 37°50' E 015°48'510.1
2018-Feb-19 11:30N 37°51' E 015°42'10 8.9
2018-Feb-19 10:21N 37°58' E 015°32'610.5
2018-Feb-19 09:47N 38°04' E 015°33'310.7
2018-Feb-19 09:30N 38°07' E 015°33'610.7
2018-Feb-19 08:58N 38°12' E 015°35'4 8.8
2018-Feb-19 08:30N 38°15' E 015°39'4 7.5
2018-Feb-19 07:58N 38°19' E 015°36'510.4
2018-Feb-19 07:30N 38°21' E 015°31'510.4
2018-Feb-19 07:00N 38°24' E 015°25'510.1
2018-Feb-19 06:30N 38°27' E 015°20'510.0
2018-Feb-19 06:00N 38°29' E 015°14'510.1
2018-Feb-19 05:29N 38°32' E 015°09'510.1
2018-Feb-19 04:59N 38°35' E 015°03'510.2
2018-Feb-19 04:29N 38°37' E 014°57'  
2018-Feb-12 18:22N 37°43' W 000°21'410.8
2018-Feb-12 18:00N 37°40' W 000°24'510.6
2018-Feb-12 17:31N 37°36' W 000°28'510.4
2018-Feb-12 17:00N 37°32' W 000°32'810.5
2018-Feb-12 16:17N 37°27' W 000°39'410.2
2018-Feb-12 15:52N 37°24' W 000°43'410.3
2018-Feb-12 15:30N 37°21' W 000°46'610.3
2018-Feb-12 14:55N 37°17' W 000°52'22510.4
2018-Feb-11 17:15N 35°56' W 005°13'311.2
2018-Feb-11 17:00N 35°55' W 005°16'2 5.0
2018-Feb-11 16:31N 35°54' W 005°18'0 0.0
2018-Feb-11 16:00N 35°54' W 005°18'0 0.0
2018-Feb-11 15:31N 35°54' W 005°18'0 0.0
2018-Feb-11 15:00N 35°54' W 005°18'0 0.0
2018-Feb-11 14:31N 35°54' W 005°18'0 0.0
2018-Feb-11 14:01N 35°54' W 005°18'0 0.0
2018-Feb-11 13:31N 35°54' W 005°18'0 0.0
2018-Feb-11 13:01N 35°54' W 005°18'0 0.0
2018-Feb-11 12:30N 35°54' W 005°18'0 0.0
2018-Feb-11 12:00N 35°54' W 005°18'0 0.0
2018-Feb-11 11:30N 35°54' W 005°18'0 0.3
2018-Feb-11 11:01N 35°54' W 005°19'1 2.4
2018-Feb-11 10:31N 35°55' W 005°18'1 2.1
2018-Feb-11 10:00N 35°56' W 005°18'4 7.6
2018-Feb-11 09:30N 35°58' W 005°22'612.0
2018-Feb-11 09:00N 35°56' W 005°29'263 9.3
2018-Feb-10 04:46N 38°25' W 010°01'411.0
2018-Feb-10 04:26N 38°29' W 010°02'1210.9
2018-Feb-10 03:22N 38°40' W 010°06'510.8
2018-Feb-10 02:55N 38°45' W 010°06'610.8
2018-Feb-10 02:23N 38°50' W 010°06'410.7
2018-Feb-10 02:00N 38°54' W 010°06'510.9
2018-Feb-10 01:30N 38°60' W 010°06'510.7
2018-Feb-10 01:00N 39°05' W 010°06'510.5
2018-Feb-10 00:30N 39°10' W 010°06'  
Track history (hours):
 
Tides and Currents Weather Stations Pressure Air Temp Water Temp Dewpoint Dewpoint Depression Visibility Wind Speed Wind Dir Waves Ship Positions

Hohe Bank

Last reported at 2018-Feb-19 13:19 UTC. Time now 2018-Feb-20 03:54 UTC.
Position N 37°46' E 016°04'.

Length 86 m; draft 4 m.

Type: Cargo ship. MMSI: 236568000.

Date/timePositionNaut miles runAvg speedWind from/ knotsBaromVisibWave heightAir tempDewpointWater temp
2018-Feb-19 13:19N 37°46' E 016°04'410.9
2018-Feb-19 12:58N 37°46' E 015°59'5 9.2
2018-Feb-19 12:24N 37°48' E 015°53'410.4
2018-Feb-19 12:00N 37°50' E 015°48'510.1
2018-Feb-19 11:30N 37°51' E 015°42'10 8.9
2018-Feb-19 10:21N 37°58' E 015°32'610.5
2018-Feb-19 09:47N 38°04' E 015°33'310.7
2018-Feb-19 09:30N 38°07' E 015°33'610.7
2018-Feb-19 08:58N 38°12' E 015°35'4 8.8
2018-Feb-19 08:30N 38°15' E 015°39'4 7.5
2018-Feb-19 07:58N 38°19' E 015°36'510.4
2018-Feb-19 07:30N 38°21' E 015°31'510.4
2018-Feb-19 07:00N 38°24' E 015°25'510.1
2018-Feb-19 06:30N 38°27' E 015°20'510.0
2018-Feb-19 06:00N 38°29' E 015°14'510.1
2018-Feb-19 05:29N 38°32' E 015°09'510.1
2018-Feb-19 04:59N 38°35' E 015°03'510.2
2018-Feb-19 04:29N 38°37' E 014°57'  
2018-Feb-12 18:22N 37°43' W 000°21'410.8
2018-Feb-12 18:00N 37°40' W 000°24'510.6
2018-Feb-12 17:31N 37°36' W 000°28'510.4
2018-Feb-12 17:00N 37°32' W 000°32'810.5
2018-Feb-12 16:17N 37°27' W 000°39'410.2
2018-Feb-12 15:52N 37°24' W 000°43'410.3
2018-Feb-12 15:30N 37°21' W 000°46'610.3
2018-Feb-12 14:55N 37°17' W 000°52'22510.4
2018-Feb-11 17:15N 35°56' W 005°13'311.2
2018-Feb-11 17:00N 35°55' W 005°16'2 5.0
2018-Feb-11 16:31N 35°54' W 005°18'0 0.0
2018-Feb-11 16:00N 35°54' W 005°18'0 0.0
2018-Feb-11 15:31N 35°54' W 005°18'0 0.0
2018-Feb-11 15:00N 35°54' W 005°18'0 0.0
2018-Feb-11 14:31N 35°54' W 005°18'0 0.0
2018-Feb-11 14:01N 35°54' W 005°18'0 0.0
2018-Feb-11 13:31N 35°54' W 005°18'0 0.0
2018-Feb-11 13:01N 35°54' W 005°18'0 0.0
2018-Feb-11 12:30N 35°54' W 005°18'0 0.0
2018-Feb-11 12:00N 35°54' W 005°18'0 0.0
2018-Feb-11 11:30N 35°54' W 005°18'0 0.3
2018-Feb-11 11:01N 35°54' W 005°19'1 2.4
2018-Feb-11 10:31N 35°55' W 005°18'1 2.1
2018-Feb-11 10:00N 35°56' W 005°18'4 7.6
2018-Feb-11 09:30N 35°58' W 005°22'612.0
2018-Feb-11 09:00N 35°56' W 005°29'263 9.3
2018-Feb-10 04:46N 38°25' W 010°01'411.0
2018-Feb-10 04:26N 38°29' W 010°02'1210.9
2018-Feb-10 03:22N 38°40' W 010°06'510.8
2018-Feb-10 02:55N 38°45' W 010°06'610.8
2018-Feb-10 02:23N 38°50' W 010°06'410.7
2018-Feb-10 02:00N 38°54' W 010°06'510.9
2018-Feb-10 01:30N 38°60' W 010°06'510.7
2018-Feb-10 01:00N 39°05' W 010°06'510.5
2018-Feb-10 00:30N 39°10' W 010°06'  

Dump ship's entire track history